createdAt,value
2022-09-23T00:01:26.697Z,19.30
2022-09-23T00:04:04.136Z,19.30
2022-09-23T00:06:39.547Z,19.30
2022-09-23T00:09:15.633Z,19.30
2022-09-23T00:11:52.499Z,19.30
2022-09-23T00:14:28.065Z,19.30
2022-09-23T00:17:05.775Z,19.20
2022-09-23T00:19:44.590Z,19.20
2022-09-23T00:22:19.612Z,19.20
2022-09-23T00:24:54.847Z,19.20
2022-09-23T00:27:32.803Z,19.20
2022-09-23T00:30:11.030Z,19.30
2022-09-23T00:32:45.990Z,19.30
2022-09-23T00:35:21.703Z,19.30
2022-09-23T00:37:57.033Z,19.40
2022-09-23T00:40:32.628Z,19.40
2022-09-23T00:43:10.606Z,19.40
2022-09-23T00:45:47.147Z,19.40
2022-09-23T00:48:25.840Z,19.40
2022-09-23T00:51:01.574Z,19.30
2022-09-23T00:53:37.700Z,19.30
2022-09-23T00:56:15.621Z,19.30
2022-09-23T00:58:55.202Z,19.40
2022-09-23T01:01:32.221Z,19.40
2022-09-23T01:04:11.575Z,19.50
2022-09-23T01:06:47.487Z,19.50
2022-09-23T01:09:22.974Z,19.50
2022-09-23T01:12:09.063Z,19.50
2022-09-23T01:14:52.807Z,19.50
2022-09-23T01:17:34.889Z,19.40
2022-09-23T01:20:43.453Z,19.50
2022-09-23T01:23:47.005Z,19.50
2022-09-23T01:26:44.644Z,19.40
2022-09-23T01:29:45.273Z,19.40
2022-09-23T01:37:51.613Z,19.30
2022-09-23T01:40:35.048Z,19.40
2022-09-23T01:43:13.784Z,19.30
2022-09-23T01:51:22.348Z,19.00
2022-09-23T01:54:03.560Z,19.20
2022-09-23T01:56:44.014Z,19.10
2022-09-23T02:02:03.320Z,19.10
2022-09-23T02:04:47.360Z,19.10
2022-09-23T02:07:32.869Z,19.20
2022-09-23T02:10:17.854Z,19.20
2022-09-23T02:12:58.965Z,19.20
2022-09-23T02:15:38.241Z,19.20
2022-09-23T02:18:17.522Z,19.30
2022-09-23T02:23:36.815Z,19.40
2022-09-23T02:26:21.179Z,19.40
2022-09-23T02:29:05.338Z,19.50
2022-09-23T02:31:45.535Z,19.60
2022-09-23T02:34:36.024Z,19.60
2022-09-23T02:37:23.501Z,19.60
2022-09-23T02:40:07.060Z,19.60
2022-09-23T02:42:50.511Z,19.50
2022-09-23T02:45:25.758Z,19.60
2022-09-23T02:48:08.833Z,19.60
2022-09-23T02:50:48.514Z,19.60
2022-09-23T02:53:27.499Z,19.60
2022-09-23T02:56:05.893Z,19.60
2022-09-23T02:58:41.395Z,19.60
2022-09-23T03:01:33.125Z,20.90
2022-09-23T03:04:17.832Z,19.50
2022-09-23T03:07:05.176Z,19.50
2022-09-23T03:09:48.524Z,19.50
2022-09-23T03:12:36.068Z,19.40
2022-09-23T03:15:22.922Z,19.30
2022-09-23T03:18:07.801Z,19.30
2022-09-23T03:20:51.213Z,19.40
2022-09-23T03:23:33.330Z,20.30
2022-09-23T03:26:14.914Z,19.50
2022-09-23T03:28:51.974Z,19.40
2022-09-23T03:31:27.750Z,19.40
2022-09-23T03:34:06.852Z,19.40
2022-09-23T03:36:55.594Z,19.40
2022-09-23T03:39:39.113Z,19.50
2022-09-23T03:42:19.783Z,19.50
2022-09-23T03:44:59.983Z,19.60
2022-09-23T03:47:36.033Z,19.50
2022-09-23T03:50:11.587Z,19.40
2022-09-23T03:58:02.996Z,19.30
2022-09-23T04:00:39.048Z,19.20
2022-09-23T04:03:16.155Z,19.20
2022-09-23T04:05:53.523Z,22.90
2022-09-23T04:08:29.049Z,19.20
2022-09-23T04:11:06.935Z,19.10
2022-09-23T04:13:45.607Z,19.20
2022-09-23T04:16:21.186Z,19.20
2022-09-23T04:18:57.832Z,19.20
2022-09-23T04:21:33.755Z,19.10
2022-09-23T04:24:09.164Z,19.00
2022-09-23T04:26:45.786Z,19.10
2022-09-23T04:29:24.873Z,19.10
2022-09-23T04:32:01.153Z,19.10
2022-09-23T04:34:36.295Z,19.20
2022-09-23T04:37:11.775Z,19.30
2022-09-23T04:39:47.149Z,19.30
2022-09-23T04:42:25.179Z,19.30
2022-09-23T04:45:03.264Z,19.40
2022-09-23T04:47:39.594Z,19.40
2022-09-23T04:50:16.422Z,19.60
2022-09-23T04:52:52.603Z,19.60
2022-09-23T04:55:30.914Z,19.60
2022-09-23T04:58:06.018Z,19.70
2022-09-23T05:00:43.484Z,19.60
2022-09-23T05:03:18.796Z,19.50
2022-09-23T05:05:54.104Z,19.50
2022-09-23T05:08:30.157Z,19.50
2022-09-23T05:11:06.450Z,19.50
2022-09-23T05:13:41.647Z,19.60
2022-09-23T05:24:08.434Z,19.70
2022-09-23T06:24:20.848Z,19.60
2022-09-23T06:26:57.693Z,19.50
2022-09-23T06:29:35.721Z,19.40
2022-09-23T06:32:11.294Z,19.40
2022-09-23T06:42:40.064Z,19.30
2022-09-23T06:47:55.492Z,19.10
2022-09-23T06:50:33.367Z,19.10
2022-09-23T06:53:08.814Z,19.10
2022-09-23T06:55:43.844Z,19.20
2022-09-23T06:58:19.367Z,19.20
2022-09-23T07:00:54.604Z,19.10
2022-09-23T07:03:29.953Z,19.20
2022-09-23T07:06:07.450Z,19.30
2022-09-23T07:08:51.606Z,19.20
2022-09-23T07:11:27.927Z,19.20
2022-09-23T07:14:03.548Z,19.30
2022-09-23T07:16:39.704Z,19.20
2022-09-23T07:19:15.984Z,19.10
2022-09-23T07:21:52.902Z,19.10
2022-09-23T07:24:28.427Z,19.00
2022-09-23T07:27:07.065Z,19.00
2022-09-23T07:29:48.484Z,19.10
2022-09-23T07:32:25.754Z,19.20
2022-09-23T07:35:19.996Z,19.10
2022-09-23T07:37:58.364Z,19.20
2022-09-23T07:40:34.799Z,19.20
2022-09-23T07:53:33.517Z,19.20
2022-09-23T07:56:10.616Z,19.20
2022-09-23T08:29:58.598Z,19.00
2022-09-23T08:32:33.783Z,19.00
2022-09-23T08:35:10.832Z,19.00
2022-09-23T08:37:46.331Z,19.00
2022-09-23T08:56:14.789Z,19.10
2022-09-23T08:59:00.203Z,19.20
2022-09-23T09:01:43.998Z,19.10
2022-09-23T09:10:07.771Z,19.00
2022-09-23T09:12:49.345Z,19.10
2022-09-23T09:15:28.278Z,19.00
2022-09-23T09:18:10.142Z,18.90
2022-09-23T09:20:50.050Z,18.90
2022-09-23T09:23:28.267Z,18.90
2022-09-23T09:26:05.798Z,19.00
2022-09-23T09:28:46.102Z,19.00
2022-09-23T09:31:28.761Z,19.00
2022-09-23T09:34:09.232Z,19.00
2022-09-23T09:36:53.071Z,18.90
2022-09-23T09:39:28.426Z,19.00
2022-09-23T09:42:07.130Z,18.90
2022-09-23T09:44:48.868Z,18.90
2022-09-23T09:47:41.507Z,18.90
2022-09-23T09:50:20.829Z,19.00
2022-09-23T10:47:12.964Z,18.80
2022-09-23T10:50:18.645Z,18.70
2022-09-23T10:55:52.782Z,18.70
2022-09-23T10:58:54.851Z,18.70
2022-09-23T11:01:42.615Z,18.70
2022-09-23T11:07:24.371Z,18.40
2022-09-23T11:10:45.865Z,18.70
2022-09-23T11:13:34.958Z,18.60
2022-09-23T11:16:18.800Z,18.60
2022-09-23T11:19:12.530Z,18.60
2022-09-23T11:24:46.871Z,18.50
2022-09-23T11:27:33.504Z,18.50
2022-09-23T11:30:14.884Z,18.50
2022-09-23T11:33:27.083Z,18.50
2022-09-23T11:52:07.322Z,18.70
2022-09-23T11:57:44.577Z,18.60
2022-09-23T12:16:55.505Z,18.50
2022-09-23T12:22:28.720Z,18.40
2022-09-23T12:25:21.265Z,18.40
2022-09-23T12:27:58.988Z,18.40
2022-09-23T12:30:38.976Z,18.40
2022-09-23T12:33:29.072Z,18.40
2022-09-23T12:36:09.280Z,18.40
2022-09-23T12:38:52.999Z,18.40
2022-09-23T12:41:39.206Z,18.40
2022-09-23T12:44:38.447Z,18.40
2022-09-23T12:47:45.809Z,18.40
2022-09-23T12:50:57.516Z,18.40
2022-09-23T12:53:59.971Z,18.30
2022-09-23T12:57:09.134Z,18.40
2022-09-23T13:00:02.382Z,18.40
2022-09-23T13:02:41.582Z,18.40
2022-09-23T13:05:40.410Z,18.40
2022-09-23T13:08:29.943Z,18.40
2022-09-23T13:11:10.554Z,18.40
2022-09-23T13:13:48.834Z,18.40
2022-09-23T13:16:29.293Z,18.40
2022-09-23T13:19:06.155Z,18.40
2022-09-23T13:22:11.560Z,18.40
2022-09-23T13:24:52.721Z,18.40
2022-09-23T13:27:42.042Z,18.40
2022-09-23T13:30:26.633Z,18.40
2022-09-23T13:33:13.254Z,18.40
2022-09-23T13:35:54.654Z,18.40
2022-09-23T13:38:34.098Z,18.40
2022-09-23T13:41:16.256Z,18.40
2022-09-23T13:43:53.707Z,18.40
2022-09-23T13:46:30.845Z,18.30
2022-09-23T13:49:10.217Z,18.30
2022-09-23T13:51:49.110Z,18.30
2022-09-23T13:54:40.508Z,18.30
2022-09-23T13:57:31.982Z,18.30
2022-09-23T14:00:20.579Z,18.30
2022-09-23T14:02:57.292Z,18.30
2022-09-23T14:05:40.125Z,18.30
2022-09-23T14:08:19.136Z,18.30
2022-09-23T14:10:59.989Z,18.30
2022-09-23T14:13:36.652Z,18.30
2022-09-23T14:16:17.776Z,18.30
2022-09-23T14:19:01.292Z,18.30
2022-09-23T14:21:40.679Z,18.30
2022-09-23T14:24:24.264Z,18.30
2022-09-23T14:27:15.174Z,18.30
2022-09-23T14:29:53.138Z,18.30
2022-09-23T14:32:32.208Z,18.30
2022-09-23T14:35:24.023Z,18.30
2022-09-23T14:38:18.469Z,18.30
2022-09-23T14:41:17.229Z,18.30
2022-09-23T14:43:59.617Z,18.30
2022-09-23T14:46:36.809Z,18.20
2022-09-23T14:49:25.738Z,18.20
2022-09-23T14:52:02.672Z,18.20
2022-09-23T14:54:49.186Z,18.20
2022-09-23T14:57:32.942Z,18.20
2022-09-23T15:00:21.695Z,18.30
2022-09-23T15:03:05.181Z,18.20
2022-09-23T15:05:49.502Z,18.30
2022-09-23T15:08:27.951Z,18.20
2022-09-23T15:11:08.531Z,18.20
2022-09-23T15:13:47.328Z,18.20
2022-09-23T15:16:31.388Z,18.20
2022-09-23T15:19:07.082Z,18.20
2022-09-23T15:21:47.728Z,18.20
2022-09-23T15:24:45.390Z,18.20
2022-09-23T15:27:32.504Z,18.20
2022-09-23T15:30:20.501Z,18.20
2022-09-23T15:32:58.585Z,18.20
2022-09-23T15:35:35.187Z,18.20
2022-09-23T15:38:11.786Z,18.20
2022-09-23T15:40:47.142Z,18.20
2022-09-23T15:43:23.452Z,18.10
2022-09-23T15:46:02.047Z,18.10
2022-09-23T15:48:45.379Z,18.10
2022-09-23T15:51:21.664Z,18.10
2022-09-23T15:53:58.089Z,18.20
2022-09-23T15:56:35.846Z,18.20
2022-09-23T15:59:11.758Z,18.20
2022-09-23T16:01:48.312Z,18.20
2022-09-23T16:04:27.257Z,18.20
2022-09-23T16:07:03.386Z,18.20
2022-09-23T16:09:38.513Z,18.20
2022-09-23T16:12:16.285Z,18.20
2022-09-23T16:14:53.196Z,18.20
2022-09-23T16:17:30.831Z,18.20
2022-09-23T16:20:08.356Z,18.20
2022-09-23T16:22:43.914Z,18.10
2022-09-23T16:25:19.176Z,18.10
2022-09-23T16:27:57.059Z,18.10
2022-09-23T16:30:34.682Z,18.10
2022-09-23T16:33:10.439Z,18.10
2022-09-23T16:35:48.095Z,18.10
2022-09-23T16:38:23.412Z,18.10
2022-09-23T16:41:04.362Z,18.10
2022-09-23T16:43:43.095Z,18.10
2022-09-23T16:46:22.144Z,18.10
2022-09-23T16:48:57.907Z,18.10
2022-09-23T16:51:39.966Z,18.00
2022-09-23T16:54:16.318Z,18.00
2022-09-23T16:56:52.158Z,18.10
2022-09-23T16:59:47.720Z,18.00
2022-09-23T17:02:40.345Z,18.00
2022-09-23T17:05:20.223Z,18.00
2022-09-23T17:07:58.156Z,18.00
2022-09-23T17:10:33.343Z,18.00
2022-09-23T17:13:09.792Z,18.00
2022-09-23T17:15:46.135Z,18.00
2022-09-23T17:18:22.427Z,18.00
2022-09-23T17:21:05.402Z,18.00
2022-09-23T17:23:42.596Z,18.00
2022-09-23T17:26:18.159Z,18.00
2022-09-23T17:28:53.628Z,18.00
2022-09-23T17:31:32.350Z,18.00
2022-09-23T17:34:10.614Z,18.00
2022-09-23T17:36:45.921Z,18.00
2022-09-23T17:39:23.132Z,18.00
2022-09-23T17:41:59.032Z,18.00
2022-09-23T17:44:35.030Z,17.90
2022-09-23T17:47:30.974Z,17.90
2022-09-23T17:50:08.870Z,17.90
2022-09-23T17:52:44.141Z,17.90
2022-09-23T17:55:22.115Z,17.90
2022-09-23T17:57:58.284Z,17.90
2022-09-23T18:00:34.315Z,17.90
2022-09-23T18:03:09.959Z,17.90
2022-09-23T18:05:45.128Z,17.90
2022-09-23T18:08:21.156Z,17.80
2022-09-23T18:10:59.300Z,17.80
2022-09-23T18:13:34.840Z,17.80
2022-09-23T18:16:10.466Z,17.90
2022-09-23T18:18:46.351Z,17.80
2022-09-23T18:21:21.781Z,17.80
2022-09-23T18:24:21.317Z,17.80
2022-09-23T18:27:00.268Z,17.80
2022-09-23T18:29:36.936Z,17.80
2022-09-23T18:32:14.178Z,17.90
2022-09-23T18:34:49.963Z,17.80
2022-09-23T18:37:25.144Z,17.90
2022-09-23T18:40:00.332Z,17.80
2022-09-23T18:42:41.996Z,17.80
2022-09-23T18:45:17.925Z,17.80
2022-09-23T18:48:08.750Z,17.80
2022-09-23T18:51:02.568Z,17.80
2022-09-23T18:53:38.938Z,17.80
2022-09-23T18:56:17.112Z,17.80
2022-09-23T18:58:55.516Z,17.80
2022-09-23T19:01:32.658Z,17.80
2022-09-23T19:04:08.953Z,17.80
2022-09-23T19:06:44.522Z,17.70
2022-09-23T19:09:23.968Z,17.70
2022-09-23T19:11:59.400Z,17.70
2022-09-23T19:14:36.577Z,17.70
2022-09-23T19:17:12.140Z,17.70
2022-09-23T19:19:47.789Z,17.70
2022-09-23T19:22:25.967Z,17.70
2022-09-23T19:25:01.219Z,17.70
2022-09-23T19:27:38.501Z,17.70
2022-09-23T19:30:18.104Z,17.70
2022-09-23T19:32:53.851Z,17.70
2022-09-23T19:35:30.030Z,17.70
2022-09-23T19:38:05.290Z,17.80
2022-09-23T19:40:41.352Z,17.70
2022-09-23T19:43:18.174Z,17.70
2022-09-23T19:46:01.423Z,17.70
2022-09-23T19:48:36.703Z,17.80
2022-09-23T19:51:12.284Z,17.80
2022-09-23T19:53:49.650Z,17.80
2022-09-23T19:56:25.416Z,17.80
2022-09-23T19:59:01.141Z,17.70
2022-09-23T20:01:39.486Z,17.70
2022-09-23T20:04:15.734Z,17.70
2022-09-23T20:06:51.330Z,17.70
2022-09-23T20:09:29.823Z,17.70
2022-09-23T20:12:05.211Z,17.70
2022-09-23T20:14:40.775Z,17.70
2022-09-23T20:17:19.144Z,17.70
2022-09-23T20:19:58.099Z,17.80
2022-09-23T20:22:35.787Z,17.70
2022-09-23T20:25:17.738Z,17.70
2022-09-23T20:27:54.305Z,17.70
2022-09-23T20:30:31.081Z,17.70
2022-09-23T20:33:08.307Z,17.70
2022-09-23T20:35:44.946Z,17.70
2022-09-23T20:38:20.179Z,17.80
2022-09-23T20:41:00.864Z,17.80
2022-09-23T20:43:36.703Z,17.80
2022-09-23T20:46:12.050Z,17.80
2022-09-23T20:48:52.065Z,17.80
2022-09-23T20:51:49.390Z,17.90
2022-09-23T20:54:26.509Z,17.90
2022-09-23T20:57:04.036Z,18.00
2022-09-23T20:59:39.372Z,18.00
2022-09-23T21:02:17.167Z,18.10
2022-09-23T21:04:55.133Z,18.10
2022-09-23T21:07:30.734Z,18.20
2022-09-23T21:10:08.623Z,18.20
2022-09-23T21:12:44.205Z,18.20
2022-09-23T21:15:21.032Z,18.20
2022-09-23T21:17:56.497Z,18.20
2022-09-23T21:20:33.532Z,18.30
2022-09-23T21:23:08.813Z,18.30
2022-09-23T21:25:45.105Z,18.40
2022-09-23T21:28:20.998Z,18.60
2022-09-23T21:30:56.305Z,18.60
2022-09-23T21:33:32.156Z,18.70
2022-09-23T21:36:10.908Z,18.80
2022-09-23T21:38:46.755Z,18.90
2022-09-23T21:41:23.170Z,18.90
2022-09-23T21:43:58.276Z,18.90
2022-09-23T21:46:35.634Z,19.00
2022-09-23T21:49:16.172Z,19.10
2022-09-23T21:52:12.087Z,19.30
2022-09-23T21:54:49.392Z,19.50
2022-09-23T21:57:27.550Z,19.50
2022-09-23T22:00:07.159Z,19.50
2022-09-23T22:02:42.468Z,19.40
2022-09-23T22:05:17.802Z,19.40
2022-09-23T22:07:55.965Z,19.50
2022-09-23T22:10:33.705Z,19.50
2022-09-23T22:13:12.967Z,19.50
2022-09-23T22:15:48.510Z,19.60
2022-09-23T22:18:24.960Z,19.60
2022-09-23T22:21:02.587Z,19.60
2022-09-23T22:23:41.348Z,19.60
2022-09-23T22:26:16.683Z,19.60
2022-09-23T22:29:07.404Z,19.50
2022-09-23T22:31:59.185Z,19.50
2022-09-23T22:34:51.661Z,19.60
2022-09-23T22:37:31.939Z,19.70
2022-09-23T22:40:11.751Z,19.80
2022-09-23T22:42:48.597Z,19.80
2022-09-23T22:45:24.265Z,19.70
2022-09-23T22:47:59.346Z,19.70
2022-09-23T22:50:34.968Z,19.80
2022-09-23T22:53:10.760Z,19.90
2022-09-23T22:55:49.198Z,19.90
2022-09-23T22:58:32.207Z,19.90
2022-09-23T23:01:08.193Z,19.90
2022-09-23T23:03:43.509Z,19.90
2022-09-23T23:06:21.247Z,19.90
2022-09-23T23:09:00.210Z,20.00
2022-09-23T23:11:37.244Z,20.10
2022-09-23T23:14:12.575Z,20.10
2022-09-23T23:16:51.100Z,20.10
2022-09-23T23:19:26.452Z,20.20
2022-09-23T23:22:01.727Z,20.10
2022-09-23T23:24:39.124Z,19.90
2022-09-23T23:27:16.179Z,19.80
2022-09-23T23:29:51.529Z,19.80
2022-09-23T23:32:26.972Z,19.60
2022-09-23T23:35:02.414Z,19.50
2022-09-23T23:37:37.500Z,19.40
2022-09-23T23:40:13.890Z,19.30
2022-09-23T23:42:52.653Z,19.30
2022-09-23T23:45:28.019Z,19.20
2022-09-23T23:48:05.466Z,19.00
2022-09-23T23:50:40.581Z,18.90
2022-09-23T23:53:15.716Z,18.90
2022-09-23T23:56:12.019Z,18.90
2022-09-23T23:58:51.244Z,19.00
